sensor_id;sensor_type;location;lat;lon;timestamp;P1;durP1;ratioP1;P2;durP2;ratioP2
52854;SDS011;38719;51.418;7.286;2022-08-23T00:02:23;8.45;;;5.18;;
52854;SDS011;38719;51.418;7.286;2022-08-23T00:04:52;7.57;;;5.43;;
52854;SDS011;38719;51.418;7.286;2022-08-23T00:07:34;9.25;;;5.47;;
52854;SDS011;38719;51.418;7.286;2022-08-23T00:10:04;10.60;;;5.97;;
52854;SDS011;38719;51.418;7.286;2022-08-23T00:12:34;14.07;;;6.00;;
52854;SDS011;38719;51.418;7.286;2022-08-23T00:15:02;13.50;;;6.32;;
52854;SDS011;38719;51.418;7.286;2022-08-23T00:17:32;10.57;;;6.88;;
52854;SDS011;38719;51.418;7.286;2022-08-23T00:20:00;11.23;;;6.97;;
52854;SDS011;38719;51.418;7.286;2022-08-23T00:22:28;15.73;;;6.57;;
52854;SDS011;38719;51.418;7.286;2022-08-23T00:24:56;14.02;;;5.90;;
52854;SDS011;38719;51.418;7.286;2022-08-23T00:27:23;10.82;;;6.43;;
52854;SDS011;38719;51.418;7.286;2022-08-23T00:29:53;9.05;;;5.60;;
52854;SDS011;38719;51.418;7.286;2022-08-23T00:32:23;7.63;;;5.38;;
52854;SDS011;38719;51.418;7.286;2022-08-23T00:34:54;10.20;;;5.47;;
52854;SDS011;38719;51.418;7.286;2022-08-23T00:37:22;9.95;;;5.28;;
52854;SDS011;38719;51.418;7.286;2022-08-23T00:39:50;12.15;;;5.43;;
52854;SDS011;38719;51.418;7.286;2022-08-23T00:42:25;7.18;;;5.07;;
52854;SDS011;38719;51.418;7.286;2022-08-23T00:45:16;6.68;;;4.97;;
52854;SDS011;38719;51.418;7.286;2022-08-23T00:48:04;9.85;;;5.18;;
52854;SDS011;38719;51.418;7.286;2022-08-23T00:50:34;12.23;;;5.38;;
52854;SDS011;38719;51.418;7.286;2022-08-23T00:53:07;9.73;;;5.40;;
52854;SDS011;38719;51.418;7.286;2022-08-23T00:55:38;7.80;;;4.45;;
52854;SDS011;38719;51.418;7.286;2022-08-23T00:58:09;9.85;;;5.55;;
52854;SDS011;38719;51.418;7.286;2022-08-23T01:00:40;7.95;;;5.00;;
52854;SDS011;38719;51.418;7.286;2022-08-23T01:03:08;13.35;;;5.63;;
52854;SDS011;38719;51.418;7.286;2022-08-23T01:05:44;8.05;;;5.15;;
52854;SDS011;38719;51.418;7.286;2022-08-23T01:08:18;9.82;;;5.25;;
52854;SDS011;38719;51.418;7.286;2022-08-23T01:10:49;8.32;;;5.28;;
52854;SDS011;38719;51.418;7.286;2022-08-23T01:13:23;7.50;;;5.57;;
52854;SDS011;38719;51.418;7.286;2022-08-23T01:15:57;9.52;;;5.43;;
52854;SDS011;38719;51.418;7.286;2022-08-23T01:18:30;11.95;;;5.40;;
52854;SDS011;38719;51.418;7.286;2022-08-23T01:21:02;8.70;;;5.57;;
52854;SDS011;38719;51.418;7.286;2022-08-23T01:23:39;7.78;;;5.22;;
52854;SDS011;38719;51.418;7.286;2022-08-23T01:26:10;17.73;;;5.55;;
52854;SDS011;38719;51.418;7.286;2022-08-23T01:28:46;9.05;;;5.60;;
52854;SDS011;38719;51.418;7.286;2022-08-23T01:31:14;10.85;;;5.78;;
52854;SDS011;38719;51.418;7.286;2022-08-23T01:33:44;9.80;;;5.45;;
52854;SDS011;38719;51.418;7.286;2022-08-23T01:36:15;7.25;;;5.57;;
52854;SDS011;38719;51.418;7.286;2022-08-23T01:38:44;8.30;;;5.53;;
52854;SDS011;38719;51.418;7.286;2022-08-23T01:41:12;7.47;;;5.28;;
52854;SDS011;38719;51.418;7.286;2022-08-23T01:43:39;7.88;;;5.43;;
52854;SDS011;38719;51.418;7.286;2022-08-23T01:46:08;10.65;;;5.45;;
52854;SDS011;38719;51.418;7.286;2022-08-23T01:48:37;7.75;;;5.30;;
52854;SDS011;38719;51.418;7.286;2022-08-23T01:51:04;11.23;;;5.32;;
52854;SDS011;38719;51.418;7.286;2022-08-23T01:53:32;9.77;;;5.05;;
52854;SDS011;38719;51.418;7.286;2022-08-23T01:56:02;6.68;;;5.10;;
52854;SDS011;38719;51.418;7.286;2022-08-23T01:58:30;8.07;;;5.30;;
52854;SDS011;38719;51.418;7.286;2022-08-23T02:01:01;7.03;;;5.38;;
52854;SDS011;38719;51.418;7.286;2022-08-23T02:03:29;6.55;;;4.80;;
52854;SDS011;38719;51.418;7.286;2022-08-23T02:05:57;9.73;;;5.40;;
52854;SDS011;38719;51.418;7.286;2022-08-23T02:08:25;9.07;;;4.47;;
52854;SDS011;38719;51.418;7.286;2022-08-23T02:11:13;11.85;;;5.30;;
52854;SDS011;38719;51.418;7.286;2022-08-23T02:13:44;6.15;;;4.78;;
52854;SDS011;38719;51.418;7.286;2022-08-23T02:16:12;9.77;;;5.43;;
52854;SDS011;38719;51.418;7.286;2022-08-23T02:18:50;11.07;;;5.63;;
52854;SDS011;38719;51.418;7.286;2022-08-23T02:21:18;9.52;;;5.00;;
52854;SDS011;38719;51.418;7.286;2022-08-23T02:23:47;10.48;;;5.20;;
52854;SDS011;38719;51.418;7.286;2022-08-23T02:26:18;6.45;;;4.28;;
52854;SDS011;38719;51.418;7.286;2022-08-23T02:28:56;6.95;;;4.63;;
52854;SDS011;38719;51.418;7.286;2022-08-23T02:31:24;7.78;;;4.22;;
52854;SDS011;38719;51.418;7.286;2022-08-23T02:33:52;6.72;;;4.47;;
52854;SDS011;38719;51.418;7.286;2022-08-23T02:36:37;5.25;;;4.25;;
52854;SDS011;38719;51.418;7.286;2022-08-23T02:39:07;7.43;;;4.68;;
52854;SDS011;38719;51.418;7.286;2022-08-23T02:41:37;7.35;;;4.30;;
52854;SDS011;38719;51.418;7.286;2022-08-23T02:44:07;8.18;;;4.30;;
52854;SDS011;38719;51.418;7.286;2022-08-23T02:46:35;4.78;;;3.88;;
52854;SDS011;38719;51.418;7.286;2022-08-23T02:49:03;5.05;;;3.65;;
52854;SDS011;38719;51.418;7.286;2022-08-23T02:51:32;5.28;;;3.55;;
52854;SDS011;38719;51.418;7.286;2022-08-23T02:54:00;6.28;;;3.83;;
52854;SDS011;38719;51.418;7.286;2022-08-23T02:56:28;6.30;;;3.83;;
52854;SDS011;38719;51.418;7.286;2022-08-23T02:58:57;5.70;;;3.83;;
52854;SDS011;38719;51.418;7.286;2022-08-23T03:01:26;7.63;;;3.60;;
52854;SDS011;38719;51.418;7.286;2022-08-23T03:03:55;8.20;;;4.00;;
52854;SDS011;38719;51.418;7.286;2022-08-23T03:06:23;5.60;;;3.90;;
52854;SDS011;38719;51.418;7.286;2022-08-23T03:08:52;7.57;;;3.60;;
52854;SDS011;38719;51.418;7.286;2022-08-23T03:11:20;5.75;;;3.92;;
52854;SDS011;38719;51.418;7.286;2022-08-23T03:13:48;10.60;;;3.50;;
52854;SDS011;38719;51.418;7.286;2022-08-23T03:16:19;4.35;;;3.28;;
52854;SDS011;38719;51.418;7.286;2022-08-23T03:18:47;6.20;;;3.38;;
52854;SDS011;38719;51.418;7.286;2022-08-23T03:21:15;7.72;;;3.35;;
52854;SDS011;38719;51.418;7.286;2022-08-23T03:23:43;4.15;;;3.10;;
52854;SDS011;38719;51.418;7.286;2022-08-23T03:26:12;6.57;;;3.50;;
52854;SDS011;38719;51.418;7.286;2022-08-23T03:28:41;8.98;;;3.55;;
52854;SDS011;38719;51.418;7.286;2022-08-23T03:31:12;3.80;;;3.00;;
52854;SDS011;38719;51.418;7.286;2022-08-23T03:33:42;6.13;;;3.42;;
52854;SDS011;38719;51.418;7.286;2022-08-23T03:36:10;6.65;;;3.40;;
52854;SDS011;38719;51.418;7.286;2022-08-23T03:38:39;6.10;;;3.22;;
52854;SDS011;38719;51.418;7.286;2022-08-23T03:41:08;4.53;;;3.03;;
52854;SDS011;38719;51.418;7.286;2022-08-23T03:43:36;4.05;;;3.15;;
52854;SDS011;38719;51.418;7.286;2022-08-23T03:46:06;4.68;;;3.00;;
52854;SDS011;38719;51.418;7.286;2022-08-23T03:48:34;5.82;;;3.30;;
52854;SDS011;38719;51.418;7.286;2022-08-23T03:51:04;7.30;;;3.20;;
52854;SDS011;38719;51.418;7.286;2022-08-23T03:53:32;6.20;;;3.42;;
52854;SDS011;38719;51.418;7.286;2022-08-23T03:55:59;5.15;;;3.15;;
52854;SDS011;38719;51.418;7.286;2022-08-23T03:58:27;6.97;;;3.08;;
52854;SDS011;38719;51.418;7.286;2022-08-23T04:00:55;4.82;;;3.30;;
52854;SDS011;38719;51.418;7.286;2022-08-23T04:03:25;6.72;;;2.97;;
52854;SDS011;38719;51.418;7.286;2022-08-23T04:05:53;5.93;;;3.20;;
52854;SDS011;38719;51.418;7.286;2022-08-23T04:08:22;6.20;;;3.40;;
52854;SDS011;38719;51.418;7.286;2022-08-23T04:10:59;5.93;;;3.47;;
52854;SDS011;38719;51.418;7.286;2022-08-23T04:13:26;4.22;;;3.15;;
52854;SDS011;38719;51.418;7.286;2022-08-23T04:15:54;6.03;;;3.15;;
52854;SDS011;38719;51.418;7.286;2022-08-23T04:18:23;5.35;;;3.50;;
52854;SDS011;38719;51.418;7.286;2022-08-23T04:20:51;9.32;;;3.65;;
52854;SDS011;38719;51.418;7.286;2022-08-23T04:23:18;6.07;;;3.50;;
52854;SDS011;38719;51.418;7.286;2022-08-23T04:25:48;5.07;;;3.30;;
52854;SDS011;38719;51.418;7.286;2022-08-23T04:28:15;5.40;;;3.67;;
52854;SDS011;38719;51.418;7.286;2022-08-23T04:30:44;6.78;;;3.20;;
52854;SDS011;38719;51.418;7.286;2022-08-23T04:33:12;6.10;;;3.22;;
52854;SDS011;38719;51.418;7.286;2022-08-23T04:35:43;5.75;;;3.30;;
52854;SDS011;38719;51.418;7.286;2022-08-23T04:38:11;3.80;;;3.05;;
52854;SDS011;38719;51.418;7.286;2022-08-23T04:40:52;3.75;;;3.25;;
52854;SDS011;38719;51.418;7.286;2022-08-23T04:43:37;4.03;;;3.10;;
52854;SDS011;38719;51.418;7.286;2022-08-23T04:46:05;4.47;;;3.13;;
52854;SDS011;38719;51.418;7.286;2022-08-23T04:48:35;5.45;;;3.38;;
52854;SDS011;38719;51.418;7.286;2022-08-23T04:51:03;7.75;;;3.33;;
52854;SDS011;38719;51.418;7.286;2022-08-23T04:53:31;5.13;;;3.42;;
52854;SDS011;38719;51.418;7.286;2022-08-23T04:56:02;6.13;;;3.45;;
52854;SDS011;38719;51.418;7.286;2022-08-23T04:58:31;5.68;;;3.38;;
52854;SDS011;38719;51.418;7.286;2022-08-23T05:01:00;7.63;;;3.22;;
52854;SDS011;38719;51.418;7.286;2022-08-23T05:03:30;3.83;;;2.97;;
52854;SDS011;38719;51.418;7.286;2022-08-23T05:05:58;5.30;;;3.40;;
52854;SDS011;38719;51.418;7.286;2022-08-23T05:08:26;6.10;;;3.35;;
52854;SDS011;38719;51.418;7.286;2022-08-23T05:10:54;4.20;;;3.10;;
52854;SDS011;38719;51.418;7.286;2022-08-23T05:13:23;9.65;;;3.25;;
52854;SDS011;38719;51.418;7.286;2022-08-23T05:15:50;4.35;;;3.05;;
52854;SDS011;38719;51.418;7.286;2022-08-23T05:18:18;5.65;;;3.20;;
52854;SDS011;38719;51.418;7.286;2022-08-23T05:20:49;3.30;;;2.90;;
52854;SDS011;38719;51.418;7.286;2022-08-23T05:23:17;3.80;;;2.80;;
52854;SDS011;38719;51.418;7.286;2022-08-23T05:25:48;4.45;;;3.00;;
52854;SDS011;38719;51.418;7.286;2022-08-23T05:28:19;7.55;;;2.70;;
52854;SDS011;38719;51.418;7.286;2022-08-23T05:30:57;4.97;;;2.90;;
52854;SDS011;38719;51.418;7.286;2022-08-23T05:33:27;5.47;;;3.17;;
52854;SDS011;38719;51.418;7.286;2022-08-23T05:35:56;4.47;;;3.00;;
52854;SDS011;38719;51.418;7.286;2022-08-23T05:38:24;4.78;;;3.30;;
52854;SDS011;38719;51.418;7.286;2022-08-23T05:40:53;5.53;;;3.08;;
52854;SDS011;38719;51.418;7.286;2022-08-23T05:43:25;6.65;;;3.10;;
52854;SDS011;38719;51.418;7.286;2022-08-23T05:45:59;8.68;;;2.80;;
52854;SDS011;38719;51.418;7.286;2022-08-23T05:48:29;5.88;;;2.78;;
52854;SDS011;38719;51.418;7.286;2022-08-23T05:51:06;7.65;;;3.22;;
52854;SDS011;38719;51.418;7.286;2022-08-23T05:53:35;4.53;;;2.75;;
52854;SDS011;38719;51.418;7.286;2022-08-23T05:56:10;6.95;;;3.50;;
52854;SDS011;38719;51.418;7.286;2022-08-23T05:58:39;6.53;;;2.90;;
52854;SDS011;38719;51.418;7.286;2022-08-23T06:01:08;7.80;;;3.03;;
52854;SDS011;38719;51.418;7.286;2022-08-23T06:03:37;7.70;;;3.20;;
52854;SDS011;38719;51.418;7.286;2022-08-23T06:06:06;10.02;;;3.20;;
52854;SDS011;38719;51.418;7.286;2022-08-23T06:08:34;5.70;;;3.00;;
52854;SDS011;38719;51.418;7.286;2022-08-23T06:11:04;6.43;;;3.05;;
52854;SDS011;38719;51.418;7.286;2022-08-23T06:13:34;5.68;;;2.75;;
52854;SDS011;38719;51.418;7.286;2022-08-23T06:16:06;10.15;;;3.20;;
52854;SDS011;38719;51.418;7.286;2022-08-23T06:18:41;6.22;;;3.17;;
52854;SDS011;38719;51.418;7.286;2022-08-23T06:21:11;6.45;;;3.00;;
52854;SDS011;38719;51.418;7.286;2022-08-23T06:23:40;4.50;;;2.90;;
52854;SDS011;38719;51.418;7.286;2022-08-23T06:26:09;5.40;;;3.10;;
52854;SDS011;38719;51.418;7.286;2022-08-23T06:28:37;7.07;;;3.35;;
52854;SDS011;38719;51.418;7.286;2022-08-23T06:31:16;6.63;;;3.20;;
52854;SDS011;38719;51.418;7.286;2022-08-23T06:34:07;4.18;;;2.80;;
52854;SDS011;38719;51.418;7.286;2022-08-23T06:36:37;5.88;;;2.85;;
52854;SDS011;38719;51.418;7.286;2022-08-23T06:39:06;5.00;;;3.13;;
52854;SDS011;38719;51.418;7.286;2022-08-23T06:41:35;4.63;;;2.83;;
52854;SDS011;38719;51.418;7.286;2022-08-23T06:44:04;6.43;;;2.90;;
52854;SDS011;38719;51.418;7.286;2022-08-23T06:46:33;5.55;;;2.67;;
52854;SDS011;38719;51.418;7.286;2022-08-23T06:49:01;5.70;;;2.60;;
52854;SDS011;38719;51.418;7.286;2022-08-23T06:51:33;4.38;;;2.70;;
52854;SDS011;38719;51.418;7.286;2022-08-23T06:54:03;5.53;;;2.95;;
52854;SDS011;38719;51.418;7.286;2022-08-23T06:56:34;3.63;;;2.65;;
52854;SDS011;38719;51.418;7.286;2022-08-23T06:59:03;4.93;;;2.90;;
52854;SDS011;38719;51.418;7.286;2022-08-23T07:01:32;4.50;;;2.47;;
52854;SDS011;38719;51.418;7.286;2022-08-23T07:04:12;7.18;;;2.97;;
52854;SDS011;38719;51.418;7.286;2022-08-23T07:06:43;4.93;;;3.20;;
52854;SDS011;38719;51.418;7.286;2022-08-23T07:09:12;7.22;;;2.42;;
52854;SDS011;38719;51.418;7.286;2022-08-23T07:11:40;8.63;;;2.80;;
52854;SDS011;38719;51.418;7.286;2022-08-23T07:14:09;5.00;;;3.08;;
52854;SDS011;38719;51.418;7.286;2022-08-23T07:16:39;6.85;;;3.15;;
52854;SDS011;38719;51.418;7.286;2022-08-23T07:19:09;3.75;;;2.80;;
52854;SDS011;38719;51.418;7.286;2022-08-23T07:21:38;5.72;;;2.85;;
52854;SDS011;38719;51.418;7.286;2022-08-23T07:24:07;5.05;;;2.90;;
52854;SDS011;38719;51.418;7.286;2022-08-23T07:26:35;6.60;;;2.97;;
52854;SDS011;38719;51.418;7.286;2022-08-23T07:29:04;6.03;;;2.80;;
52854;SDS011;38719;51.418;7.286;2022-08-23T07:31:32;9.35;;;2.95;;
52854;SDS011;38719;51.418;7.286;2022-08-23T07:34:02;6.80;;;3.20;;
52854;SDS011;38719;51.418;7.286;2022-08-23T07:36:31;8.73;;;3.10;;
52854;SDS011;38719;51.418;7.286;2022-08-23T07:39:01;5.68;;;2.70;;
52854;SDS011;38719;51.418;7.286;2022-08-23T07:41:33;6.68;;;3.05;;
52854;SDS011;38719;51.418;7.286;2022-08-23T07:44:04;10.57;;;2.92;;
52854;SDS011;38719;51.418;7.286;2022-08-23T07:46:34;5.60;;;3.03;;
52854;SDS011;38719;51.418;7.286;2022-08-23T07:49:03;5.75;;;2.97;;
52854;SDS011;38719;51.418;7.286;2022-08-23T07:51:31;4.93;;;3.33;;
52854;SDS011;38719;51.418;7.286;2022-08-23T07:54:00;4.60;;;2.90;;
52854;SDS011;38719;51.418;7.286;2022-08-23T07:56:29;6.78;;;3.13;;
52854;SDS011;38719;51.418;7.286;2022-08-23T07:58:58;5.38;;;2.97;;
52854;SDS011;38719;51.418;7.286;2022-08-23T08:01:27;8.27;;;3.00;;
52854;SDS011;38719;51.418;7.286;2022-08-23T08:03:56;5.18;;;3.40;;
52854;SDS011;38719;51.418;7.286;2022-08-23T08:06:26;5.35;;;3.13;;
52854;SDS011;38719;51.418;7.286;2022-08-23T08:08:56;5.13;;;3.45;;
52854;SDS011;38719;51.418;7.286;2022-08-23T08:11:25;5.63;;;3.00;;
52854;SDS011;38719;51.418;7.286;2022-08-23T08:14:03;8.85;;;3.17;;
52854;SDS011;38719;51.418;7.286;2022-08-23T08:16:33;6.43;;;3.20;;
52854;SDS011;38719;51.418;7.286;2022-08-23T08:19:03;5.07;;;2.75;;
52854;SDS011;38719;51.418;7.286;2022-08-23T08:21:33;6.60;;;3.10;;
52854;SDS011;38719;51.418;7.286;2022-08-23T08:24:05;6.75;;;3.38;;
52854;SDS011;38719;51.418;7.286;2022-08-23T08:26:34;7.22;;;3.20;;
52854;SDS011;38719;51.418;7.286;2022-08-23T08:29:04;5.32;;;3.35;;
52854;SDS011;38719;51.418;7.286;2022-08-23T08:31:32;5.20;;;3.13;;
52854;SDS011;38719;51.418;7.286;2022-08-23T08:34:01;6.88;;;3.30;;
52854;SDS011;38719;51.418;7.286;2022-08-23T08:36:30;6.07;;;3.20;;
52854;SDS011;38719;51.418;7.286;2022-08-23T08:39:02;7.78;;;3.88;;
52854;SDS011;38719;51.418;7.286;2022-08-23T08:41:35;6.15;;;3.47;;
52854;SDS011;38719;51.418;7.286;2022-08-23T08:46:51;10.38;;;3.28;;
52854;SDS011;38719;51.418;7.286;2022-08-23T08:49:24;9.65;;;3.22;;
52854;SDS011;38719;51.418;7.286;2022-08-23T08:52:00;7.38;;;3.53;;
52854;SDS011;38719;51.418;7.286;2022-08-23T08:54:33;6.72;;;3.42;;
52854;SDS011;38719;51.418;7.286;2022-08-23T08:57:03;6.25;;;3.38;;
52854;SDS011;38719;51.418;7.286;2022-08-23T08:59:38;9.48;;;3.42;;
52854;SDS011;38719;51.418;7.286;2022-08-23T09:02:15;10.43;;;3.10;;
52854;SDS011;38719;51.418;7.286;2022-08-23T09:04:58;7.43;;;3.28;;
52854;SDS011;38719;51.418;7.286;2022-08-23T09:07:29;4.40;;;3.33;;
52854;SDS011;38719;51.418;7.286;2022-08-23T09:10:17;6.65;;;3.63;;
52854;SDS011;38719;51.418;7.286;2022-08-23T09:12:59;4.55;;;3.42;;
52854;SDS011;38719;51.418;7.286;2022-08-23T09:15:37;6.93;;;4.28;;
52854;SDS011;38719;51.418;7.286;2022-08-23T09:18:12;4.50;;;3.22;;
52854;SDS011;38719;51.418;7.286;2022-08-23T09:20:42;5.90;;;3.53;;
52854;SDS011;38719;51.418;7.286;2022-08-23T09:23:14;4.47;;;3.30;;
52854;SDS011;38719;51.418;7.286;2022-08-23T09:25:49;9.23;;;3.67;;
52854;SDS011;38719;51.418;7.286;2022-08-23T09:28:18;6.47;;;3.63;;
52854;SDS011;38719;51.418;7.286;2022-08-23T09:30:49;7.88;;;3.55;;
52854;SDS011;38719;51.418;7.286;2022-08-23T09:33:20;4.80;;;3.75;;
52854;SDS011;38719;51.418;7.286;2022-08-23T09:36:05;8.32;;;3.10;;
52854;SDS011;38719;51.418;7.286;2022-08-23T09:38:48;9.00;;;3.30;;
52854;SDS011;38719;51.418;7.286;2022-08-23T09:41:18;8.85;;;3.67;;
52854;SDS011;38719;51.418;7.286;2022-08-23T09:43:51;6.20;;;3.30;;
52854;SDS011;38719;51.418;7.286;2022-08-23T09:46:28;7.40;;;3.30;;
52854;SDS011;38719;51.418;7.286;2022-08-23T09:48:57;8.52;;;3.22;;
52854;SDS011;38719;51.418;7.286;2022-08-23T09:51:28;5.28;;;3.10;;
52854;SDS011;38719;51.418;7.286;2022-08-23T09:54:05;7.38;;;3.70;;
52854;SDS011;38719;51.418;7.286;2022-08-23T09:56:35;4.45;;;3.15;;
52854;SDS011;38719;51.418;7.286;2022-08-23T09:59:18;8.20;;;3.63;;
52854;SDS011;38719;51.418;7.286;2022-08-23T10:01:53;7.82;;;3.40;;
52854;SDS011;38719;51.418;7.286;2022-08-23T10:04:24;7.55;;;3.50;;
52854;SDS011;38719;51.418;7.286;2022-08-23T10:07:19;7.00;;;3.25;;
52854;SDS011;38719;51.418;7.286;2022-08-23T10:09:50;9.40;;;3.22;;
52854;SDS011;38719;51.418;7.286;2022-08-23T10:12:18;6.70;;;3.50;;
52854;SDS011;38719;51.418;7.286;2022-08-23T10:14:46;5.30;;;3.33;;
52854;SDS011;38719;51.418;7.286;2022-08-23T10:17:17;4.15;;;3.65;;
52854;SDS011;38719;51.418;7.286;2022-08-23T10:20:12;5.93;;;3.28;;
52854;SDS011;38719;51.418;7.286;2022-08-23T10:22:48;3.80;;;3.33;;
52854;SDS011;38719;51.418;7.286;2022-08-23T10:25:21;7.20;;;3.50;;
52854;SDS011;38719;51.418;7.286;2022-08-23T10:30:44;5.93;;;3.20;;
52854;SDS011;38719;51.418;7.286;2022-08-23T10:33:23;5.85;;;3.40;;
52854;SDS011;38719;51.418;7.286;2022-08-23T10:35:59;4.90;;;3.20;;
52854;SDS011;38719;51.418;7.286;2022-08-23T10:38:41;6.95;;;3.80;;
52854;SDS011;38719;51.418;7.286;2022-08-23T10:44:16;5.35;;;3.40;;
52854;SDS011;38719;51.418;7.286;2022-08-23T10:46:52;4.55;;;2.95;;
52854;SDS011;38719;51.418;7.286;2022-08-23T10:49:29;5.10;;;3.40;;
52854;SDS011;38719;51.418;7.286;2022-08-23T10:52:01;4.80;;;3.40;;
52854;SDS011;38719;51.418;7.286;2022-08-23T10:54:31;7.00;;;3.67;;
52854;SDS011;38719;51.418;7.286;2022-08-23T10:57:11;5.88;;;3.80;;
52854;SDS011;38719;51.418;7.286;2022-08-23T10:59:41;5.40;;;3.53;;
52854;SDS011;38719;51.418;7.286;2022-08-23T11:02:15;5.25;;;3.58;;
52854;SDS011;38719;51.418;7.286;2022-08-23T11:04:52;5.57;;;3.15;;
52854;SDS011;38719;51.418;7.286;2022-08-23T11:07:27;6.28;;;3.72;;
52854;SDS011;38719;51.418;7.286;2022-08-23T11:10:07;5.97;;;3.40;;
52854;SDS011;38719;51.418;7.286;2022-08-23T11:12:52;5.80;;;3.67;;
52854;SDS011;38719;51.418;7.286;2022-08-23T11:15:28;6.75;;;3.40;;
52854;SDS011;38719;51.418;7.286;2022-08-23T11:18:10;6.07;;;3.58;;
52854;SDS011;38719;51.418;7.286;2022-08-23T11:21:04;7.40;;;3.60;;
52854;SDS011;38719;51.418;7.286;2022-08-23T11:23:36;5.45;;;3.30;;
52854;SDS011;38719;51.418;7.286;2022-08-23T11:29:33;6.15;;;3.42;;
52854;SDS011;38719;51.418;7.286;2022-08-23T11:32:15;6.38;;;3.28;;
52854;SDS011;38719;51.418;7.286;2022-08-23T11:35:02;6.25;;;2.92;;
52854;SDS011;38719;51.418;7.286;2022-08-23T11:37:49;7.80;;;3.10;;
52854;SDS011;38719;51.418;7.286;2022-08-23T11:43:33;4.35;;;3.03;;
52854;SDS011;38719;51.418;7.286;2022-08-23T11:48:58;7.43;;;3.25;;
52854;SDS011;38719;51.418;7.286;2022-08-23T11:51:49;4.65;;;3.45;;
52854;SDS011;38719;51.418;7.286;2022-08-23T11:54:36;5.22;;;3.03;;
52854;SDS011;38719;51.418;7.286;2022-08-23T11:57:25;5.78;;;3.38;;
52854;SDS011;38719;51.418;7.286;2022-08-23T12:00:08;8.82;;;3.53;;
52854;SDS011;38719;51.418;7.286;2022-08-23T12:02:56;4.93;;;2.85;;
52854;SDS011;38719;51.418;7.286;2022-08-23T12:08:28;5.82;;;2.90;;
52854;SDS011;38719;51.418;7.286;2022-08-23T12:11:02;10.07;;;2.90;;
52854;SDS011;38719;51.418;7.286;2022-08-23T12:13:43;3.27;;;2.97;;
52854;SDS011;38719;51.418;7.286;2022-08-23T12:16:31;3.90;;;3.03;;
52854;SDS011;38719;51.418;7.286;2022-08-23T12:19:09;5.32;;;3.28;;
52854;SDS011;38719;51.418;7.286;2022-08-23T12:21:51;4.32;;;3.08;;
52854;SDS011;38719;51.418;7.286;2022-08-23T12:24:23;5.25;;;3.00;;
52854;SDS011;38719;51.418;7.286;2022-08-23T12:26:59;5.47;;;3.08;;
52854;SDS011;38719;51.418;7.286;2022-08-23T12:29:38;6.32;;;2.90;;
52854;SDS011;38719;51.418;7.286;2022-08-23T12:32:15;5.20;;;3.05;;
52854;SDS011;38719;51.418;7.286;2022-08-23T12:34:52;7.03;;;3.40;;
52854;SDS011;38719;51.418;7.286;2022-08-23T12:37:33;5.90;;;2.83;;
52854;SDS011;38719;51.418;7.286;2022-08-23T12:40:08;8.13;;;3.63;;
52854;SDS011;38719;51.418;7.286;2022-08-23T12:42:40;5.43;;;3.15;;
52854;SDS011;38719;51.418;7.286;2022-08-23T12:45:11;4.63;;;3.10;;
52854;SDS011;38719;51.418;7.286;2022-08-23T12:47:42;7.30;;;3.22;;
52854;SDS011;38719;51.418;7.286;2022-08-23T12:50:24;7.85;;;3.67;;
52854;SDS011;38719;51.418;7.286;2022-08-23T12:53:00;5.93;;;3.10;;
52854;SDS011;38719;51.418;7.286;2022-08-23T12:55:30;13.52;;;4.75;;
52854;SDS011;38719;51.418;7.286;2022-08-23T12:58:02;4.97;;;2.97;;
52854;SDS011;38719;51.418;7.286;2022-08-23T13:00:31;6.28;;;3.10;;
52854;SDS011;38719;51.418;7.286;2022-08-23T13:03:02;7.68;;;3.00;;
52854;SDS011;38719;51.418;7.286;2022-08-23T13:05:38;5.97;;;3.30;;
52854;SDS011;38719;51.418;7.286;2022-08-23T13:08:10;5.72;;;3.00;;
52854;SDS011;38719;51.418;7.286;2022-08-23T13:10:52;7.35;;;3.17;;
52854;SDS011;38719;51.418;7.286;2022-08-23T13:13:23;14.95;;;3.15;;
52854;SDS011;38719;51.418;7.286;2022-08-23T13:15:54;12.43;;;3.10;;
52854;SDS011;38719;51.418;7.286;2022-08-23T13:18:24;3.63;;;2.72;;
52854;SDS011;38719;51.418;7.286;2022-08-23T13:23:42;4.47;;;3.10;;
52854;SDS011;38719;51.418;7.286;2022-08-23T13:26:27;5.43;;;2.80;;
52854;SDS011;38719;51.418;7.286;2022-08-23T13:29:04;3.80;;;2.53;;
52854;SDS011;38719;51.418;7.286;2022-08-23T13:31:47;3.70;;;2.20;;
52854;SDS011;38719;51.418;7.286;2022-08-23T13:34:32;2.88;;;2.30;;
52854;SDS011;38719;51.418;7.286;2022-08-23T13:37:05;4.28;;;2.58;;
52854;SDS011;38719;51.418;7.286;2022-08-23T13:39:43;6.63;;;2.33;;
52854;SDS011;38719;51.418;7.286;2022-08-23T13:42:14;16.80;;;3.72;;
52854;SDS011;38719;51.418;7.286;2022-08-23T13:44:53;4.43;;;2.30;;
52854;SDS011;38719;51.418;7.286;2022-08-23T13:47:22;3.50;;;2.47;;
52854;SDS011;38719;51.418;7.286;2022-08-23T13:49:53;16.63;;;2.50;;
52854;SDS011;38719;51.418;7.286;2022-08-23T13:52:24;13.10;;;2.63;;
52854;SDS011;38719;51.418;7.286;2022-08-23T13:55:11;3.50;;;2.47;;
52854;SDS011;38719;51.418;7.286;2022-08-23T13:57:39;3.70;;;2.40;;
52854;SDS011;38719;51.418;7.286;2022-08-23T14:00:10;6.85;;;2.30;;
52854;SDS011;38719;51.418;7.286;2022-08-23T14:02:44;3.25;;;2.40;;
52854;SDS011;38719;51.418;7.286;2022-08-23T14:05:14;7.35;;;2.28;;
52854;SDS011;38719;51.418;7.286;2022-08-23T14:07:43;3.88;;;2.42;;
52854;SDS011;38719;51.418;7.286;2022-08-23T14:10:13;5.07;;;2.70;;
52854;SDS011;38719;51.418;7.286;2022-08-23T14:12:43;3.58;;;2.55;;
52854;SDS011;38719;51.418;7.286;2022-08-23T14:15:14;3.28;;;2.63;;
52854;SDS011;38719;51.418;7.286;2022-08-23T14:17:43;7.60;;;2.70;;
52854;SDS011;38719;51.418;7.286;2022-08-23T14:20:14;4.88;;;2.60;;
52854;SDS011;38719;51.418;7.286;2022-08-23T14:23:02;5.03;;;2.88;;
52854;SDS011;38719;51.418;7.286;2022-08-23T14:25:37;8.95;;;2.70;;
52854;SDS011;38719;51.418;7.286;2022-08-23T14:28:05;6.15;;;2.85;;
52854;SDS011;38719;51.418;7.286;2022-08-23T14:30:35;6.60;;;2.88;;
52854;SDS011;38719;51.418;7.286;2022-08-23T14:33:03;4.25;;;2.40;;
52854;SDS011;38719;51.418;7.286;2022-08-23T14:35:31;4.85;;;2.88;;
52854;SDS011;38719;51.418;7.286;2022-08-23T14:37:59;7.07;;;2.70;;
52854;SDS011;38719;51.418;7.286;2022-08-23T14:40:30;4.85;;;2.90;;
52854;SDS011;38719;51.418;7.286;2022-08-23T14:42:57;6.25;;;2.58;;
52854;SDS011;38719;51.418;7.286;2022-08-23T14:45:25;4.45;;;3.00;;
52854;SDS011;38719;51.418;7.286;2022-08-23T14:47:55;5.22;;;2.67;;
52854;SDS011;38719;51.418;7.286;2022-08-23T14:50:23;4.05;;;2.83;;
52854;SDS011;38719;51.418;7.286;2022-08-23T14:52:54;4.65;;;2.60;;
52854;SDS011;38719;51.418;7.286;2022-08-23T14:55:21;6.40;;;2.90;;
52854;SDS011;38719;51.418;7.286;2022-08-23T14:57:50;5.80;;;2.83;;
52854;SDS011;38719;51.418;7.286;2022-08-23T15:00:18;6.72;;;3.17;;
52854;SDS011;38719;51.418;7.286;2022-08-23T15:02:46;5.82;;;2.83;;
52854;SDS011;38719;51.418;7.286;2022-08-23T15:05:16;5.50;;;2.90;;
52854;SDS011;38719;51.418;7.286;2022-08-23T15:07:45;6.30;;;2.92;;
52854;SDS011;38719;51.418;7.286;2022-08-23T15:10:13;4.78;;;3.00;;
52854;SDS011;38719;51.418;7.286;2022-08-23T15:13:01;8.50;;;3.13;;
52854;SDS011;38719;51.418;7.286;2022-08-23T15:15:49;5.57;;;2.85;;
52854;SDS011;38719;51.418;7.286;2022-08-23T15:18:18;4.88;;;2.78;;
52854;SDS011;38719;51.418;7.286;2022-08-23T15:20:47;5.35;;;2.90;;
52854;SDS011;38719;51.418;7.286;2022-08-23T15:23:17;6.85;;;3.10;;
52854;SDS011;38719;51.418;7.286;2022-08-23T15:25:45;8.52;;;2.90;;
52854;SDS011;38719;51.418;7.286;2022-08-23T15:28:16;5.78;;;2.70;;
52854;SDS011;38719;51.418;7.286;2022-08-23T15:30:45;4.70;;;2.67;;
52854;SDS011;38719;51.418;7.286;2022-08-23T15:33:14;7.05;;;2.55;;
52854;SDS011;38719;51.418;7.286;2022-08-23T15:35:42;6.03;;;3.35;;
52854;SDS011;38719;51.418;7.286;2022-08-23T15:38:14;4.75;;;2.88;;
52854;SDS011;38719;51.418;7.286;2022-08-23T15:40:43;4.15;;;2.90;;